createdAt,value
2023-05-21T00:05:53.578Z,15.59
2023-05-21T00:08:20.949Z,15.62
2023-05-21T00:10:47.758Z,15.16
2023-05-21T00:13:33.844Z,15.27
2023-05-21T00:16:00.879Z,15.50
2023-05-21T00:18:27.690Z,14.93
2023-05-21T00:20:54.844Z,15.23
2023-05-21T00:23:21.687Z,15.43
2023-05-21T00:25:48.501Z,15.34
2023-05-21T00:28:15.767Z,15.42
2023-05-21T00:30:43.265Z,15.49
2023-05-21T00:33:10.704Z,15.48
2023-05-21T00:35:37.836Z,15.48
2023-05-21T00:38:04.749Z,15.04
2023-05-21T00:40:31.698Z,15.37
2023-05-21T00:42:58.743Z,15.19
2023-05-21T00:45:25.699Z,14.87
2023-05-21T00:47:55.033Z,15.08
2023-05-21T00:50:23.393Z,14.92
2023-05-21T00:52:50.711Z,14.66
2023-05-21T00:55:17.612Z,14.29
2023-05-21T00:57:46.106Z,14.20
2023-05-21T01:00:14.980Z,14.19
2023-05-21T01:02:42.403Z,14.62
2023-05-21T01:05:10.764Z,14.84
2023-05-21T01:07:41.619Z,14.94
2023-05-21T01:10:11.495Z,14.46
2023-05-21T01:12:40.160Z,14.20
2023-05-21T01:15:07.773Z,14.23
2023-05-21T01:17:35.962Z,14.24
2023-05-21T01:20:12.832Z,14.15
2023-05-21T01:22:49.573Z,14.02
2023-05-21T01:25:16.460Z,14.13
2023-05-21T01:27:43.355Z,14.28
2023-05-21T01:30:11.073Z,14.57
2023-05-21T01:32:59.260Z,14.22
2023-05-21T01:35:34.995Z,14.30
2023-05-21T01:38:02.354Z,14.35
2023-05-21T01:40:39.873Z,14.24
2023-05-21T01:43:08.394Z,14.12
2023-05-21T01:45:39.756Z,14.32
2023-05-21T01:48:08.233Z,14.52
2023-05-21T01:50:37.507Z,14.42
2023-05-21T01:53:06.104Z,14.34
2023-05-21T01:55:33.548Z,14.30
2023-05-21T01:58:02.535Z,14.22
2023-05-21T02:00:29.750Z,14.08
2023-05-21T02:02:56.995Z,14.00
2023-05-21T02:05:24.367Z,14.28
2023-05-21T02:07:52.875Z,14.88
2023-05-21T02:10:20.278Z,14.44
2023-05-21T02:12:47.172Z,14.76
2023-05-21T02:15:18.245Z,14.55
2023-05-21T02:17:48.273Z,13.96
2023-05-21T02:20:15.735Z,14.35
2023-05-21T02:22:45.127Z,13.67
2023-05-21T02:25:13.811Z,14.10
2023-05-21T02:27:42.689Z,14.10
2023-05-21T02:30:15.100Z,14.08
2023-05-21T02:32:44.114Z,14.01
2023-05-21T02:35:13.352Z,14.31
2023-05-21T02:37:41.224Z,14.42
2023-05-21T02:40:10.329Z,14.33
2023-05-21T02:42:39.775Z,14.30
2023-05-21T02:45:08.749Z,14.43
2023-05-21T02:47:35.811Z,14.40
2023-05-21T02:50:02.791Z,13.75
2023-05-21T02:52:29.741Z,14.10
2023-05-21T02:54:56.501Z,14.03
2023-05-21T02:57:23.445Z,14.07
2023-05-21T02:59:53.177Z,14.16
2023-05-21T03:02:20.311Z,13.86
2023-05-21T03:04:49.167Z,14.01
2023-05-21T03:07:19.289Z,14.10
2023-05-21T03:09:46.664Z,14.18
2023-05-21T03:12:13.909Z,14.29
2023-05-21T03:14:42.994Z,14.50
2023-05-21T03:17:14.235Z,14.18
2023-05-21T03:19:42.167Z,14.33
2023-05-21T03:22:09.666Z,14.46
2023-05-21T03:24:36.964Z,14.22
2023-05-21T03:27:06.610Z,14.40
2023-05-21T03:29:34.413Z,14.34
2023-05-21T03:32:02.543Z,14.45
2023-05-21T03:34:29.742Z,14.52
2023-05-21T03:36:56.730Z,14.19
2023-05-21T03:39:23.678Z,14.17
2023-05-21T03:41:50.817Z,14.41
2023-05-21T03:44:17.887Z,14.18
2023-05-21T03:46:45.867Z,14.15
2023-05-21T03:49:12.856Z,14.27
2023-05-21T03:51:39.788Z,14.14
2023-05-21T03:54:06.702Z,14.46
2023-05-21T03:56:34.122Z,14.85
2023-05-21T03:59:01.610Z,14.84
2023-05-21T04:01:28.577Z,14.27
2023-05-21T04:03:55.990Z,14.19
2023-05-21T04:06:23.290Z,14.52
2023-05-21T04:08:50.518Z,14.52
2023-05-21T04:11:17.495Z,14.74
2023-05-21T04:13:44.386Z,14.76
2023-05-21T04:16:14.754Z,14.76
2023-05-21T04:18:43.565Z,14.59
2023-05-21T04:21:12.594Z,14.87
2023-05-21T04:23:39.685Z,15.21
2023-05-21T04:26:07.733Z,16.02
2023-05-21T04:28:35.669Z,16.18
2023-05-21T04:31:02.967Z,16.44
2023-05-21T04:33:30.522Z,16.71
2023-05-21T04:35:58.126Z,17.43
2023-05-21T04:38:26.104Z,17.47
2023-05-21T04:40:54.037Z,17.19
2023-05-21T04:43:27.292Z,17.28
2023-05-21T04:45:57.445Z,16.18
2023-05-21T04:48:25.892Z,16.22
2023-05-21T04:50:53.912Z,15.61
2023-05-21T04:53:21.011Z,15.74
2023-05-21T04:55:48.263Z,16.01
2023-05-21T04:58:18.311Z,16.29
2023-05-21T05:00:51.270Z,16.30
2023-05-21T05:03:18.331Z,16.22
2023-05-21T05:05:46.072Z,16.69
2023-05-21T05:08:15.560Z,16.34
2023-05-21T05:10:42.915Z,16.20
2023-05-21T05:13:10.111Z,16.23
2023-05-21T05:15:37.243Z,16.79
2023-05-21T05:18:04.491Z,16.90
2023-05-21T05:20:31.474Z,17.07
2023-05-21T05:22:58.219Z,16.73
2023-05-21T05:25:25.219Z,17.13
2023-05-21T05:27:52.303Z,17.03
2023-05-21T05:30:19.378Z,16.80
2023-05-21T05:32:46.950Z,16.77
2023-05-21T05:35:16.660Z,17.46
2023-05-21T05:37:43.564Z,17.29
2023-05-21T05:40:11.196Z,16.83
2023-05-21T05:42:41.370Z,17.05
2023-05-21T05:45:09.440Z,17.67
2023-05-21T05:47:39.753Z,18.97
2023-05-21T05:50:10.591Z,18.87
2023-05-21T05:52:37.664Z,19.09
2023-05-21T05:55:04.923Z,19.91
2023-05-21T05:57:32.195Z,20.21
2023-05-21T05:59:59.050Z,20.80
2023-05-21T06:02:26.268Z,19.81
2023-05-21T06:04:53.451Z,20.27
2023-05-21T06:07:23.354Z,20.65
2023-05-21T06:09:53.069Z,20.48
2023-05-21T06:12:20.309Z,20.92
2023-05-21T06:14:49.402Z,21.16
2023-05-21T06:17:16.410Z,22.04
2023-05-21T06:19:45.369Z,21.04
2023-05-21T06:22:12.454Z,21.61
2023-05-21T06:24:39.472Z,21.52
2023-05-21T06:27:06.781Z,21.65
2023-05-21T06:29:33.791Z,21.49
2023-05-21T06:32:00.723Z,21.50
2023-05-21T06:34:29.004Z,21.44
2023-05-21T06:36:56.304Z,22.66
2023-05-21T06:39:24.807Z,22.32
2023-05-21T06:41:51.887Z,21.87
2023-05-21T06:44:18.918Z,22.12
2023-05-21T06:46:48.922Z,22.28
2023-05-21T06:49:16.516Z,22.75
2023-05-21T06:51:44.319Z,22.98
2023-05-21T06:54:11.241Z,23.09
2023-05-21T06:56:38.461Z,23.80
2023-05-21T06:59:05.495Z,23.85
2023-05-21T07:01:32.894Z,22.68
2023-05-21T07:04:00.281Z,22.09
2023-05-21T07:06:29.633Z,22.02
2023-05-21T07:08:56.635Z,22.23
2023-05-21T07:11:25.618Z,22.48
2023-05-21T07:13:53.066Z,23.10
2023-05-21T07:16:20.311Z,22.50
2023-05-21T07:18:47.893Z,22.99
2023-05-21T07:21:33.392Z,22.75
2023-05-21T07:24:01.056Z,24.18
2023-05-21T07:26:27.927Z,24.18
2023-05-21T07:28:55.075Z,23.30
2023-05-21T07:31:22.145Z,24.25
2023-05-21T07:33:49.208Z,23.32
2023-05-21T07:36:16.471Z,23.30
2023-05-21T07:38:44.594Z,24.05
2023-05-21T07:41:11.485Z,24.56
2023-05-21T07:43:39.225Z,24.21
2023-05-21T07:46:06.361Z,24.71
2023-05-21T07:48:35.423Z,24.77
2023-05-21T07:51:04.161Z,25.09
2023-05-21T07:53:32.742Z,24.94
2023-05-21T07:56:00.470Z,24.15
2023-05-21T07:58:27.443Z,25.38
2023-05-21T08:00:54.489Z,24.34
2023-05-21T08:03:21.653Z,24.24
2023-05-21T08:05:49.512Z,25.06
2023-05-21T08:08:20.338Z,24.89
2023-05-21T08:10:50.378Z,24.95
2023-05-21T08:13:19.050Z,24.27
2023-05-21T08:15:46.290Z,25.38
2023-05-21T08:18:13.343Z,25.21
2023-05-21T08:20:41.298Z,23.39
2023-05-21T08:23:08.489Z,23.51
2023-05-21T08:25:35.724Z,24.74
2023-05-21T08:28:02.821Z,25.44
2023-05-21T08:30:30.009Z,25.40
2023-05-21T08:32:58.576Z,24.90
2023-05-21T08:35:25.861Z,24.90
2023-05-21T08:37:53.152Z,23.83
2023-05-21T08:40:22.631Z,24.09
2023-05-21T08:42:50.181Z,24.16
2023-05-21T08:45:24.132Z,24.39
2023-05-21T08:47:58.740Z,24.07
2023-05-21T08:50:28.282Z,23.88
2023-05-21T08:52:55.807Z,23.73
2023-05-21T08:55:23.878Z,24.45
2023-05-21T08:57:51.268Z,24.33
2023-05-21T09:00:18.468Z,24.33
2023-05-21T09:02:46.809Z,24.36
2023-05-21T09:05:15.364Z,24.59
2023-05-21T09:08:03.429Z,24.42
2023-05-21T09:10:37.955Z,24.47
2023-05-21T09:13:05.544Z,24.85
2023-05-21T09:15:39.252Z,24.52
2023-05-21T09:18:06.142Z,25.39
2023-05-21T09:20:33.024Z,26.11
2023-05-21T09:23:05.158Z,25.24
2023-05-21T09:25:32.990Z,25.20
2023-05-21T09:28:02.345Z,23.93
2023-05-21T09:30:35.693Z,23.49
2023-05-21T09:33:04.314Z,22.73
2023-05-21T09:35:32.299Z,23.06
2023-05-21T09:37:59.225Z,22.86
2023-05-21T09:40:26.671Z,22.45
2023-05-21T09:42:55.233Z,22.14
2023-05-21T09:45:24.073Z,22.39
2023-05-21T09:47:52.404Z,22.11
2023-05-21T09:50:28.375Z,21.99
2023-05-21T09:52:55.841Z,22.28
2023-05-21T09:55:23.686Z,22.20
2023-05-21T09:57:52.376Z,22.28
2023-05-21T10:00:20.313Z,22.43
2023-05-21T10:02:48.887Z,22.39
2023-05-21T10:05:19.445Z,22.46
2023-05-21T10:07:54.597Z,22.33
2023-05-21T10:10:23.078Z,22.96
2023-05-21T10:13:00.841Z,22.67
2023-05-21T10:15:32.415Z,22.41
2023-05-21T10:18:00.470Z,22.58
2023-05-21T10:20:27.714Z,22.38
2023-05-21T10:22:55.632Z,22.19
2023-05-21T10:25:23.892Z,22.45
2023-05-21T10:27:50.985Z,22.40
2023-05-21T10:30:21.272Z,22.54
2023-05-21T10:32:49.248Z,22.47
2023-05-21T10:35:19.868Z,22.43
2023-05-21T10:37:47.472Z,22.36
2023-05-21T10:40:14.851Z,22.54
2023-05-21T10:43:03.767Z,22.40
2023-05-21T10:45:53.536Z,22.13
2023-05-21T10:48:43.971Z,21.90
2023-05-21T10:51:15.797Z,22.28
2023-05-21T10:54:18.853Z,22.06
2023-05-21T10:57:07.150Z,21.65
2023-05-21T10:59:33.825Z,21.51
2023-05-21T11:02:01.879Z,21.65
2023-05-21T11:04:29.557Z,21.69
2023-05-21T11:06:59.273Z,22.09
2023-05-21T11:09:27.247Z,22.14
2023-05-21T11:11:58.275Z,22.06
2023-05-21T11:14:42.235Z,21.67
2023-05-21T11:17:43.306Z,21.83
2023-05-21T11:20:17.423Z,21.64
2023-05-21T11:22:46.783Z,21.32
2023-05-21T11:25:15.643Z,21.14
2023-05-21T11:27:42.760Z,21.01
2023-05-21T11:30:17.645Z,20.75
2023-05-21T11:33:12.591Z,20.75
2023-05-21T11:36:02.417Z,21.00
2023-05-21T11:38:40.382Z,21.54
2023-05-21T11:41:09.482Z,21.64
2023-05-21T11:43:40.911Z,21.76
2023-05-21T11:46:10.477Z,21.45
2023-05-21T11:48:39.179Z,21.87
2023-05-21T11:51:06.291Z,21.65
2023-05-21T11:53:39.056Z,21.62
2023-05-21T11:56:09.939Z,21.50
2023-05-21T11:58:36.899Z,21.21
2023-05-21T12:01:03.880Z,20.82
2023-05-21T12:03:35.282Z,20.98
2023-05-21T12:06:06.830Z,20.97
2023-05-21T12:08:33.755Z,21.17
2023-05-21T12:11:02.060Z,21.64
2023-05-21T12:13:29.816Z,22.01
2023-05-21T12:15:56.804Z,22.20
2023-05-21T12:18:23.682Z,22.10
2023-05-21T12:20:52.428Z,22.68
2023-05-21T12:23:23.530Z,22.61
2023-05-21T12:25:51.588Z,22.49
2023-05-21T12:28:18.515Z,22.25
2023-05-21T12:30:45.739Z,22.36
2023-05-21T12:33:14.247Z,22.16
2023-05-21T12:35:41.444Z,22.27
2023-05-21T12:38:09.810Z,22.42
2023-05-21T12:40:39.024Z,22.23
2023-05-21T12:43:07.022Z,22.11
2023-05-21T12:45:34.183Z,22.08
2023-05-21T12:48:04.000Z,22.28
2023-05-21T12:50:31.179Z,22.33
2023-05-21T12:52:58.905Z,22.19
2023-05-21T12:55:28.753Z,22.41
2023-05-21T12:58:08.447Z,22.39
2023-05-21T13:00:36.349Z,22.85
2023-05-21T13:03:06.642Z,22.92
2023-05-21T13:05:34.261Z,22.30
2023-05-21T13:08:01.303Z,22.54
2023-05-21T13:10:28.172Z,22.16
2023-05-21T13:12:55.136Z,22.30
2023-05-21T13:15:21.872Z,22.03
2023-05-21T13:17:50.462Z,21.83
2023-05-21T13:20:26.639Z,21.86
2023-05-21T13:22:54.134Z,21.76
2023-05-21T13:25:24.813Z,22.25
2023-05-21T13:27:53.295Z,22.08
2023-05-21T13:30:21.133Z,21.98
2023-05-21T13:32:49.038Z,21.75
2023-05-21T13:35:16.993Z,22.06
2023-05-21T13:37:45.157Z,21.93
2023-05-21T13:40:17.043Z,22.33
2023-05-21T13:42:45.742Z,21.96
2023-05-21T13:45:15.096Z,22.29
2023-05-21T13:47:43.248Z,22.31
2023-05-21T13:50:13.542Z,22.40
2023-05-21T13:52:41.103Z,22.23
2023-05-21T13:55:08.662Z,22.43
2023-05-21T13:57:35.540Z,22.42
2023-05-21T14:00:05.072Z,22.40
2023-05-21T14:02:31.955Z,22.04
2023-05-21T14:04:59.211Z,22.16
2023-05-21T14:07:26.692Z,21.78
2023-05-21T14:09:53.610Z,21.69
2023-05-21T14:12:20.924Z,21.62
2023-05-21T14:14:50.166Z,21.76
2023-05-21T14:17:17.076Z,21.63
2023-05-21T14:19:45.280Z,21.55
2023-05-21T14:22:12.334Z,21.47
2023-05-21T14:24:39.097Z,21.31
2023-05-21T14:27:06.264Z,21.07
2023-05-21T14:29:33.625Z,21.03
2023-05-21T14:32:05.734Z,20.85
2023-05-21T14:34:33.568Z,21.06
2023-05-21T14:37:00.458Z,21.29
2023-05-21T14:39:27.302Z,21.26
2023-05-21T14:41:54.223Z,20.75
2023-05-21T14:44:21.265Z,21.10
2023-05-21T14:47:06.793Z,20.70
2023-05-21T14:49:33.792Z,20.96
2023-05-21T14:52:00.722Z,20.86
2023-05-21T14:54:27.510Z,21.10
2023-05-21T14:56:54.722Z,20.98
2023-05-21T14:59:21.584Z,20.75
2023-05-21T15:02:21.235Z,20.71
2023-05-21T15:04:48.396Z,20.82
2023-05-21T15:07:15.791Z,20.84
2023-05-21T15:23:32.539Z,20.70
2023-05-21T15:26:04.888Z,20.58
2023-05-21T15:28:32.492Z,20.61
2023-05-21T15:30:59.406Z,20.85
2023-05-21T15:33:28.748Z,20.69
2023-05-21T15:35:59.953Z,20.48
2023-05-21T15:38:29.876Z,20.48
2023-05-21T15:41:00.321Z,20.17
2023-05-21T15:43:27.138Z,20.34
2023-05-21T15:48:38.084Z,20.00
2023-05-21T15:51:08.616Z,20.06
2023-05-21T15:53:36.915Z,20.03
2023-05-21T15:56:04.052Z,19.95
2023-05-21T15:58:31.634Z,19.85
2023-05-21T16:37:55.260Z,19.92
2023-05-21T16:40:22.134Z,20.10
2023-05-21T16:42:48.983Z,20.22
2023-05-21T16:45:20.802Z,20.09
2023-05-21T16:47:48.889Z,20.14
2023-05-21T16:50:16.461Z,20.06
2023-05-21T16:52:43.583Z,20.13
2023-05-21T16:55:11.377Z,20.11
2023-05-21T16:57:38.379Z,20.17
2023-05-21T17:00:05.894Z,20.09
2023-05-21T17:02:32.954Z,20.31
2023-05-21T17:07:41.099Z,20.32
2023-05-21T17:10:08.502Z,19.95
2023-05-21T17:12:35.692Z,19.98
2023-05-21T17:15:07.712Z,20.14
2023-05-21T17:17:37.406Z,20.19
2023-05-21T17:20:04.499Z,19.84
2023-05-21T17:22:31.777Z,19.97
2023-05-21T17:25:00.311Z,19.92
2023-05-21T17:27:27.264Z,19.82
2023-05-21T17:29:54.469Z,19.73
2023-05-21T17:32:21.418Z,20.00
2023-05-21T17:34:53.245Z,19.80
2023-05-21T17:37:23.504Z,19.83
2023-05-21T17:39:54.316Z,19.63
2023-05-21T17:42:25.710Z,19.76
2023-05-21T17:44:54.041Z,19.63
2023-05-21T17:47:20.907Z,19.69
2023-05-21T17:49:47.906Z,19.55
2023-05-21T17:52:14.694Z,19.57
2023-05-21T17:54:41.648Z,19.58
2023-05-21T17:57:08.842Z,19.41
2023-05-21T17:59:35.939Z,19.61
2023-05-21T18:02:03.083Z,19.50
2023-05-21T18:04:30.317Z,19.21
2023-05-21T18:06:57.380Z,19.40
2023-05-21T18:09:26.773Z,19.53
2023-05-21T18:11:53.734Z,19.44
2023-05-21T18:14:20.698Z,19.33
2023-05-21T18:16:47.487Z,19.28
2023-05-21T18:19:14.648Z,19.29
2023-05-21T18:21:41.691Z,18.81
2023-05-21T18:24:09.387Z,19.06
2023-05-21T18:26:36.766Z,18.91
2023-05-21T18:29:05.736Z,18.85
2023-05-21T18:31:32.639Z,18.83
2023-05-21T18:33:59.646Z,18.72
2023-05-21T18:36:26.798Z,18.65
2023-05-21T18:38:53.689Z,18.87
2023-05-21T18:41:22.965Z,18.59
2023-05-21T18:43:49.813Z,18.56
2023-05-21T18:46:16.783Z,18.79
2023-05-21T18:48:44.110Z,18.79
2023-05-21T18:51:11.022Z,18.54
2023-05-21T18:53:38.833Z,18.47
2023-05-21T18:56:07.180Z,18.20
2023-05-21T18:58:34.114Z,17.94
2023-05-21T19:01:01.162Z,18.23
2023-05-21T19:03:29.371Z,18.23
2023-05-21T19:05:56.393Z,18.20
2023-05-21T19:08:23.466Z,18.08
2023-05-21T19:10:50.747Z,18.00
2023-05-21T19:13:17.678Z,17.90
2023-05-21T19:15:47.265Z,17.47
2023-05-21T19:18:14.558Z,17.54
2023-05-21T19:20:41.548Z,17.27
2023-05-21T19:23:08.601Z,17.27
2023-05-21T19:25:35.379Z,17.07
2023-05-21T19:28:05.418Z,16.91
2023-05-21T19:30:36.821Z,16.93
2023-05-21T19:33:04.029Z,17.10
2023-05-21T19:35:31.087Z,17.20
2023-05-21T19:38:00.225Z,17.18
2023-05-21T19:40:28.104Z,17.12
2023-05-21T19:42:54.851Z,16.67
2023-05-21T19:45:21.888Z,16.84
2023-05-21T19:47:48.900Z,16.98
2023-05-21T19:50:15.723Z,16.87
2023-05-21T19:52:42.522Z,16.96
2023-05-21T19:55:10.381Z,16.83
2023-05-21T19:57:37.535Z,16.80
2023-05-21T20:00:05.668Z,17.15
2023-05-21T20:02:34.840Z,17.16
2023-05-21T20:05:02.000Z,17.04
2023-05-21T20:07:28.913Z,16.99
2023-05-21T20:09:56.682Z,16.72
2023-05-21T20:12:23.439Z,16.85
2023-05-21T20:14:54.344Z,16.92
2023-05-21T20:17:21.253Z,16.59
2023-05-21T20:19:48.291Z,16.59
2023-05-21T20:22:16.118Z,16.29
2023-05-21T20:24:43.782Z,16.12
2023-05-21T20:27:10.824Z,16.24
2023-05-21T20:29:37.748Z,16.27
2023-05-21T20:32:05.194Z,16.60
2023-05-21T20:34:32.075Z,16.75
2023-05-21T20:36:58.887Z,16.57
2023-05-21T20:39:27.860Z,16.25
2023-05-21T20:41:56.192Z,16.38
2023-05-21T20:44:23.101Z,16.34
2023-05-21T20:46:51.322Z,16.32
2023-05-21T20:49:25.085Z,16.24
2023-05-21T20:51:52.026Z,15.86
2023-05-21T20:54:18.853Z,15.94
2023-05-21T20:56:45.806Z,15.93
2023-05-21T20:59:12.737Z,15.98
2023-05-21T21:01:40.923Z,16.25
2023-05-21T21:04:08.555Z,16.13
2023-05-21T21:06:38.637Z,15.92
2023-05-21T21:09:05.473Z,15.95
2023-05-21T21:11:32.582Z,15.54
2023-05-21T21:13:59.627Z,15.31
2023-05-21T21:16:26.551Z,15.36
2023-05-21T21:18:53.771Z,15.40
2023-05-21T21:21:20.744Z,15.36
2023-05-21T21:23:47.565Z,15.49
2023-05-21T21:26:14.538Z,15.50
2023-05-21T21:28:41.433Z,15.48
2023-05-21T21:31:08.305Z,15.73
2023-05-21T21:33:35.278Z,15.57
2023-05-21T21:36:02.381Z,15.38
2023-05-21T21:38:29.300Z,15.42
2023-05-21T21:40:56.287Z,15.44
2023-05-21T21:43:23.682Z,15.23
2023-05-21T21:45:51.525Z,15.24
2023-05-21T21:48:18.554Z,15.41
2023-05-21T21:50:45.998Z,15.62
2023-05-21T21:53:14.155Z,15.46
2023-05-21T21:55:41.094Z,15.64
2023-05-21T21:58:08.230Z,15.54
2023-05-21T22:00:35.013Z,15.61
2023-05-21T22:03:01.997Z,15.17
2023-05-21T22:05:31.085Z,15.70
2023-05-21T22:07:57.911Z,15.43
2023-05-21T22:10:24.813Z,15.51
2023-05-21T22:12:51.853Z,15.68
2023-05-21T22:15:28.807Z,16.00
2023-05-21T22:17:56.113Z,15.79
2023-05-21T22:20:23.098Z,15.76
2023-05-21T22:22:50.019Z,16.00
2023-05-21T22:25:17.379Z,16.09
2023-05-21T22:27:44.406Z,16.12
2023-05-21T22:30:11.792Z,15.92
2023-05-21T22:32:38.813Z,15.54
2023-05-21T22:35:06.533Z,15.64
2023-05-21T22:37:33.405Z,15.30
2023-05-21T22:40:00.410Z,15.49
2023-05-21T22:42:27.182Z,15.59
2023-05-21T22:44:54.005Z,15.59
2023-05-21T22:47:23.968Z,15.50
2023-05-21T22:49:53.518Z,15.75
2023-05-21T22:52:23.816Z,15.82
2023-05-21T22:54:53.894Z,15.94
2023-05-21T22:57:20.713Z,15.97
2023-05-21T22:59:47.535Z,15.90
2023-05-21T23:02:15.893Z,15.77
2023-05-21T23:04:44.646Z,15.45
2023-05-21T23:07:12.599Z,15.50
2023-05-21T23:09:39.820Z,15.87
2023-05-21T23:12:07.394Z,15.56
2023-05-21T23:14:34.230Z,15.52
2023-05-21T23:17:04.932Z,15.62
2023-05-21T23:19:33.011Z,15.38
2023-05-21T23:22:00.506Z,15.42
2023-05-21T23:24:29.715Z,15.70
2023-05-21T23:27:02.938Z,15.70
2023-05-21T23:29:30.841Z,15.63
2023-05-21T23:31:58.081Z,15.33
2023-05-21T23:34:25.047Z,15.43
2023-05-21T23:36:52.555Z,15.13
2023-05-21T23:39:19.724Z,15.35
2023-05-21T23:41:46.581Z,15.36
2023-05-21T23:44:13.582Z,15.69
2023-05-21T23:46:40.480Z,15.63
2023-05-21T23:49:07.271Z,15.29
2023-05-21T23:51:34.334Z,15.03
2023-05-21T23:54:01.388Z,14.91
2023-05-21T23:56:28.477Z,15.17
2023-05-21T23:58:55.850Z,15.32
